sensor_id;sensor_type;location;lat;lon;timestamp;P1;durP1;ratioP1;P2;durP2;ratioP2
15693;SDS011;7947;48.834;9.132;2022-08-19T00:02:17;13.15;;;11.73;;
15693;SDS011;7947;48.834;9.132;2022-08-19T00:05:35;11.60;;;10.45;;
15693;SDS011;7947;48.834;9.132;2022-08-19T00:08:55;12.88;;;11.50;;
15693;SDS011;7947;48.834;9.132;2022-08-19T00:12:08;12.23;;;10.93;;
15693;SDS011;7947;48.834;9.132;2022-08-19T00:15:26;12.68;;;11.27;;
15693;SDS011;7947;48.834;9.132;2022-08-19T00:18:55;11.88;;;10.68;;
15693;SDS011;7947;48.834;9.132;2022-08-19T00:22:10;12.85;;;11.43;;
15693;SDS011;7947;48.834;9.132;2022-08-19T00:25:21;12.63;;;11.30;;
15693;SDS011;7947;48.834;9.132;2022-08-19T00:29:13;12.85;;;11.38;;
15693;SDS011;7947;48.834;9.132;2022-08-19T00:32:29;12.43;;;11.13;;
15693;SDS011;7947;48.834;9.132;2022-08-19T00:35:47;12.57;;;11.27;;
15693;SDS011;7947;48.834;9.132;2022-08-19T00:39:30;13.30;;;11.38;;
15693;SDS011;7947;48.834;9.132;2022-08-19T00:43:14;12.90;;;11.52;;
15693;SDS011;7947;48.834;9.132;2022-08-19T00:46:40;13.50;;;12.10;;
15693;SDS011;7947;48.834;9.132;2022-08-19T00:49:59;13.57;;;12.18;;
15693;SDS011;7947;48.834;9.132;2022-08-19T00:53:14;13.43;;;12.02;;
15693;SDS011;7947;48.834;9.132;2022-08-19T00:56:29;12.85;;;11.05;;
15693;SDS011;7947;48.834;9.132;2022-08-19T01:00:06;13.43;;;12.02;;
15693;SDS011;7947;48.834;9.132;2022-08-19T01:03:22;12.93;;;11.30;;
15693;SDS011;7947;48.834;9.132;2022-08-19T01:06:59;14.27;;;11.70;;
15693;SDS011;7947;48.834;9.132;2022-08-19T01:10:30;14.30;;;12.77;;
15693;SDS011;7947;48.834;9.132;2022-08-19T01:13:43;13.00;;;11.65;;
15693;SDS011;7947;48.834;9.132;2022-08-19T01:17:08;13.32;;;11.57;;
15693;SDS011;7947;48.834;9.132;2022-08-19T01:20:58;14.18;;;11.55;;
15693;SDS011;7947;48.834;9.132;2022-08-19T01:24:25;15.13;;;11.35;;
15693;SDS011;7947;48.834;9.132;2022-08-19T01:28:00;12.55;;;11.32;;
15693;SDS011;7947;48.834;9.132;2022-08-19T01:31:46;14.32;;;12.43;;
15693;SDS011;7947;48.834;9.132;2022-08-19T01:35:05;14.35;;;12.27;;
15693;SDS011;7947;48.834;9.132;2022-08-19T01:38:34;12.57;;;11.15;;
15693;SDS011;7947;48.834;9.132;2022-08-19T01:42:01;14.23;;;12.73;;
15693;SDS011;7947;48.834;9.132;2022-08-19T01:45:10;15.75;;;14.05;;
15693;SDS011;7947;48.834;9.132;2022-08-19T01:48:17;15.35;;;12.75;;
15693;SDS011;7947;48.834;9.132;2022-08-19T01:51:28;15.65;;;13.50;;
15693;SDS011;7947;48.834;9.132;2022-08-19T01:54:41;17.27;;;15.38;;
15693;SDS011;7947;48.834;9.132;2022-08-19T01:57:55;14.82;;;13.23;;
15693;SDS011;7947;48.834;9.132;2022-08-19T02:01:11;15.07;;;13.23;;
15693;SDS011;7947;48.834;9.132;2022-08-19T02:04:23;16.50;;;14.43;;
15693;SDS011;7947;48.834;9.132;2022-08-19T02:07:34;15.18;;;13.57;;
15693;SDS011;7947;48.834;9.132;2022-08-19T02:10:52;18.27;;;13.50;;
15693;SDS011;7947;48.834;9.132;2022-08-19T02:14:10;16.23;;;12.98;;
15693;SDS011;7947;48.834;9.132;2022-08-19T02:17:21;17.27;;;14.23;;
15693;SDS011;7947;48.834;9.132;2022-08-19T02:20:52;17.20;;;14.68;;
15693;SDS011;7947;48.834;9.132;2022-08-19T02:24:09;16.13;;;14.50;;
15693;SDS011;7947;48.834;9.132;2022-08-19T02:27:22;16.70;;;14.93;;
15693;SDS011;7947;48.834;9.132;2022-08-19T02:30:36;17.25;;;14.80;;
15693;SDS011;7947;48.834;9.132;2022-08-19T02:33:49;19.05;;;15.30;;
15693;SDS011;7947;48.834;9.132;2022-08-19T02:37:01;18.92;;;14.88;;
15693;SDS011;7947;48.834;9.132;2022-08-19T02:40:11;19.90;;;16.02;;
15693;SDS011;7947;48.834;9.132;2022-08-19T02:43:17;16.05;;;13.90;;
15693;SDS011;7947;48.834;9.132;2022-08-19T02:46:37;17.42;;;15.57;;
15693;SDS011;7947;48.834;9.132;2022-08-19T02:49:45;20.88;;;18.05;;
15693;SDS011;7947;48.834;9.132;2022-08-19T02:53:16;18.70;;;16.42;;
15693;SDS011;7947;48.834;9.132;2022-08-19T02:56:26;17.98;;;15.77;;
15693;SDS011;7947;48.834;9.132;2022-08-19T02:59:39;18.23;;;16.33;;
15693;SDS011;7947;48.834;9.132;2022-08-19T03:02:53;19.50;;;15.68;;
15693;SDS011;7947;48.834;9.132;2022-08-19T03:06:05;18.05;;;16.15;;
15693;SDS011;7947;48.834;9.132;2022-08-19T03:09:26;20.17;;;17.38;;
15693;SDS011;7947;48.834;9.132;2022-08-19T03:12:56;20.40;;;16.63;;
15693;SDS011;7947;48.834;9.132;2022-08-19T03:16:06;21.45;;;18.20;;
15693;SDS011;7947;48.834;9.132;2022-08-19T03:19:30;18.88;;;16.65;;
15693;SDS011;7947;48.834;9.132;2022-08-19T03:22:53;19.75;;;17.35;;
15693;SDS011;7947;48.834;9.132;2022-08-19T03:26:14;19.98;;;17.13;;
15693;SDS011;7947;48.834;9.132;2022-08-19T03:29:37;21.77;;;18.35;;
15693;SDS011;7947;48.834;9.132;2022-08-19T03:33:12;20.48;;;17.67;;
15693;SDS011;7947;48.834;9.132;2022-08-19T03:36:36;18.90;;;16.98;;
15693;SDS011;7947;48.834;9.132;2022-08-19T03:39:45;19.63;;;17.63;;
15693;SDS011;7947;48.834;9.132;2022-08-19T03:42:59;22.63;;;19.40;;
15693;SDS011;7947;48.834;9.132;2022-08-19T03:46:19;19.92;;;17.42;;
15693;SDS011;7947;48.834;9.132;2022-08-19T03:49:30;20.23;;;17.80;;
15693;SDS011;7947;48.834;9.132;2022-08-19T03:53:02;20.50;;;17.98;;
15693;SDS011;7947;48.834;9.132;2022-08-19T03:56:11;20.88;;;18.67;;
15693;SDS011;7947;48.834;9.132;2022-08-19T03:59:31;21.35;;;19.05;;
15693;SDS011;7947;48.834;9.132;2022-08-19T04:02:49;21.70;;;18.70;;
15693;SDS011;7947;48.834;9.132;2022-08-19T04:06:11;23.45;;;19.33;;
15693;SDS011;7947;48.834;9.132;2022-08-19T04:09:26;20.73;;;18.55;;
15693;SDS011;7947;48.834;9.132;2022-08-19T04:12:47;21.85;;;18.38;;
15693;SDS011;7947;48.834;9.132;2022-08-19T04:15:56;21.27;;;19.08;;
15693;SDS011;7947;48.834;9.132;2022-08-19T04:19:12;20.52;;;18.23;;
15693;SDS011;7947;48.834;9.132;2022-08-19T04:22:24;21.67;;;19.20;;
15693;SDS011;7947;48.834;9.132;2022-08-19T04:25:42;20.52;;;18.42;;
15693;SDS011;7947;48.834;9.132;2022-08-19T04:28:57;22.80;;;20.30;;
15693;SDS011;7947;48.834;9.132;2022-08-19T04:32:15;22.58;;;19.17;;
15693;SDS011;7947;48.834;9.132;2022-08-19T04:35:26;22.42;;;20.02;;
15693;SDS011;7947;48.834;9.132;2022-08-19T04:38:43;22.17;;;19.70;;
15693;SDS011;7947;48.834;9.132;2022-08-19T04:42:07;22.33;;;19.98;;
15693;SDS011;7947;48.834;9.132;2022-08-19T04:45:32;21.60;;;18.77;;
15693;SDS011;7947;48.834;9.132;2022-08-19T04:48:45;21.23;;;19.02;;
15693;SDS011;7947;48.834;9.132;2022-08-19T04:52:15;21.27;;;19.08;;
15693;SDS011;7947;48.834;9.132;2022-08-19T04:55:27;21.95;;;19.00;;
15693;SDS011;7947;48.834;9.132;2022-08-19T04:58:51;20.63;;;18.42;;
15693;SDS011;7947;48.834;9.132;2022-08-19T05:02:10;21.35;;;19.05;;
15693;SDS011;7947;48.834;9.132;2022-08-19T05:05:25;21.05;;;18.95;;
15693;SDS011;7947;48.834;9.132;2022-08-19T05:08:46;22.27;;;19.20;;
15693;SDS011;7947;48.834;9.132;2022-08-19T05:11:54;22.45;;;19.50;;
15693;SDS011;7947;48.834;9.132;2022-08-19T05:15:12;23.98;;;19.80;;
15693;SDS011;7947;48.834;9.132;2022-08-19T05:18:25;21.85;;;19.02;;
15693;SDS011;7947;48.834;9.132;2022-08-19T05:21:54;22.52;;;19.67;;
15693;SDS011;7947;48.834;9.132;2022-08-19T05:25:25;22.60;;;20.20;;
15693;SDS011;7947;48.834;9.132;2022-08-19T05:28:47;21.65;;;19.38;;
15693;SDS011;7947;48.834;9.132;2022-08-19T05:32:11;19.63;;;17.73;;
15693;SDS011;7947;48.834;9.132;2022-08-19T05:35:22;21.67;;;18.65;;
15693;SDS011;7947;48.834;9.132;2022-08-19T05:38:35;20.77;;;18.58;;
15693;SDS011;7947;48.834;9.132;2022-08-19T05:41:52;20.80;;;18.63;;
15693;SDS011;7947;48.834;9.132;2022-08-19T05:45:05;20.77;;;18.60;;
15693;SDS011;7947;48.834;9.132;2022-08-19T05:48:19;23.65;;;20.20;;
15693;SDS011;7947;48.834;9.132;2022-08-19T05:51:33;21.17;;;18.65;;
15693;SDS011;7947;48.834;9.132;2022-08-19T05:54:54;20.90;;;18.70;;
15693;SDS011;7947;48.834;9.132;2022-08-19T05:58:14;22.63;;;18.80;;
15693;SDS011;7947;48.834;9.132;2022-08-19T06:01:30;22.40;;;20.13;;
15693;SDS011;7947;48.834;9.132;2022-08-19T06:04:42;21.95;;;19.55;;
15693;SDS011;7947;48.834;9.132;2022-08-19T06:08:05;22.00;;;19.67;;
15693;SDS011;7947;48.834;9.132;2022-08-19T06:11:19;20.63;;;17.60;;
15693;SDS011;7947;48.834;9.132;2022-08-19T06:14:30;20.02;;;17.88;;
15693;SDS011;7947;48.834;9.132;2022-08-19T06:18:02;21.15;;;18.98;;
15693;SDS011;7947;48.834;9.132;2022-08-19T06:21:16;21.08;;;17.95;;
15693;SDS011;7947;48.834;9.132;2022-08-19T06:24:26;22.83;;;18.42;;
15693;SDS011;7947;48.834;9.132;2022-08-19T06:27:37;21.40;;;18.80;;
15693;SDS011;7947;48.834;9.132;2022-08-19T06:31:06;19.50;;;17.50;;
15693;SDS011;7947;48.834;9.132;2022-08-19T06:34:18;21.15;;;18.95;;
15693;SDS011;7947;48.834;9.132;2022-08-19T06:37:53;20.25;;;18.20;;
15693;SDS011;7947;48.834;9.132;2022-08-19T06:41:04;20.77;;;18.60;;
15693;SDS011;7947;48.834;9.132;2022-08-19T06:44:16;20.45;;;18.17;;
15693;SDS011;7947;48.834;9.132;2022-08-19T06:47:45;22.50;;;18.75;;
15693;SDS011;7947;48.834;9.132;2022-08-19T06:51:07;21.00;;;18.75;;
15693;SDS011;7947;48.834;9.132;2022-08-19T06:54:28;19.98;;;17.77;;
15693;SDS011;7947;48.834;9.132;2022-08-19T06:58:18;19.00;;;17.00;;
15693;SDS011;7947;48.834;9.132;2022-08-19T07:01:40;19.23;;;17.23;;
15693;SDS011;7947;48.834;9.132;2022-08-19T07:04:54;18.95;;;16.95;;
15693;SDS011;7947;48.834;9.132;2022-08-19T07:08:08;20.20;;;18.08;;
15693;SDS011;7947;48.834;9.132;2022-08-19T07:11:25;20.65;;;18.55;;
15693;SDS011;7947;48.834;9.132;2022-08-19T07:14:38;19.92;;;17.83;;
15693;SDS011;7947;48.834;9.132;2022-08-19T07:22:24;19.33;;;16.77;;
15693;SDS011;7947;48.834;9.132;2022-08-19T07:25:54;19.02;;;16.48;;
15693;SDS011;7947;48.834;9.132;2022-08-19T07:29:31;20.58;;;17.40;;
15693;SDS011;7947;48.834;9.132;2022-08-19T07:32:57;18.17;;;16.23;;
15693;SDS011;7947;48.834;9.132;2022-08-19T07:36:25;18.50;;;16.20;;
15693;SDS011;7947;48.834;9.132;2022-08-19T07:39:37;21.35;;;16.60;;
15693;SDS011;7947;48.834;9.132;2022-08-19T07:42:53;20.00;;;16.10;;
15693;SDS011;7947;48.834;9.132;2022-08-19T07:46:14;18.45;;;16.45;;
15693;SDS011;7947;48.834;9.132;2022-08-19T07:49:26;18.67;;;16.20;;
15693;SDS011;7947;48.834;9.132;2022-08-19T07:52:36;18.33;;;16.00;;
15693;SDS011;7947;48.834;9.132;2022-08-19T07:56:14;19.75;;;17.10;;
15693;SDS011;7947;48.834;9.132;2022-08-19T07:59:20;19.40;;;16.45;;
15693;SDS011;7947;48.834;9.132;2022-08-19T08:06:11;17.38;;;15.32;;
15693;SDS011;7947;48.834;9.132;2022-08-19T08:09:40;18.17;;;15.20;;
15693;SDS011;7947;48.834;9.132;2022-08-19T08:13:02;18.02;;;16.25;;
15693;SDS011;7947;48.834;9.132;2022-08-19T08:16:20;16.67;;;14.98;;
15693;SDS011;7947;48.834;9.132;2022-08-19T08:19:43;18.67;;;15.48;;
15693;SDS011;7947;48.834;9.132;2022-08-19T08:22:55;18.77;;;15.30;;
15693;SDS011;7947;48.834;9.132;2022-08-19T08:26:19;17.65;;;14.75;;
15693;SDS011;7947;48.834;9.132;2022-08-19T08:29:38;17.60;;;15.00;;
15693;SDS011;7947;48.834;9.132;2022-08-19T08:32:51;17.02;;;15.20;;
15693;SDS011;7947;48.834;9.132;2022-08-19T08:36:04;16.42;;;14.82;;
15693;SDS011;7947;48.834;9.132;2022-08-19T08:39:17;17.88;;;14.45;;
15693;SDS011;7947;48.834;9.132;2022-08-19T08:42:38;16.17;;;14.45;;
15693;SDS011;7947;48.834;9.132;2022-08-19T08:45:51;16.25;;;13.80;;
15693;SDS011;7947;48.834;9.132;2022-08-19T08:49:00;17.58;;;13.73;;
15693;SDS011;7947;48.834;9.132;2022-08-19T08:52:12;14.93;;;13.43;;
15693;SDS011;7947;48.834;9.132;2022-08-19T08:55:22;16.13;;;14.07;;
15693;SDS011;7947;48.834;9.132;2022-08-19T08:58:39;15.57;;;14.05;;
15693;SDS011;7947;48.834;9.132;2022-08-19T09:01:54;16.88;;;12.63;;
15693;SDS011;7947;48.834;9.132;2022-08-19T09:04:57;13.95;;;12.57;;
15693;SDS011;7947;48.834;9.132;2022-08-19T09:08:04;18.98;;;12.85;;
15693;SDS011;7947;48.834;9.132;2022-08-19T09:11:14;13.77;;;12.38;;
15693;SDS011;7947;48.834;9.132;2022-08-19T09:14:45;14.27;;;12.55;;
15693;SDS011;7947;48.834;9.132;2022-08-19T09:17:52;14.90;;;12.32;;
15693;SDS011;7947;48.834;9.132;2022-08-19T09:20:55;13.05;;;11.27;;
15693;SDS011;7947;48.834;9.132;2022-08-19T09:23:59;14.18;;;11.82;;
15693;SDS011;7947;48.834;9.132;2022-08-19T09:27:03;13.35;;;12.00;;
15693;SDS011;7947;48.834;9.132;2022-08-19T09:30:20;14.07;;;12.68;;
15693;SDS011;7947;48.834;9.132;2022-08-19T09:33:25;11.88;;;10.65;;
15693;SDS011;7947;48.834;9.132;2022-08-19T09:36:30;14.98;;;12.68;;
15693;SDS011;7947;48.834;9.132;2022-08-19T09:39:38;12.35;;;11.05;;
15693;SDS011;7947;48.834;9.132;2022-08-19T09:42:44;13.13;;;11.57;;
15693;SDS011;7947;48.834;9.132;2022-08-19T09:45:50;12.43;;;11.02;;
15693;SDS011;7947;48.834;9.132;2022-08-19T09:48:54;13.45;;;11.00;;
15693;SDS011;7947;48.834;9.132;2022-08-19T09:52:07;16.25;;;11.98;;
15693;SDS011;7947;48.834;9.132;2022-08-19T09:55:15;12.15;;;10.93;;
15693;SDS011;7947;48.834;9.132;2022-08-19T09:58:18;13.80;;;10.32;;
15693;SDS011;7947;48.834;9.132;2022-08-19T10:01:27;11.35;;;10.05;;
15693;SDS011;7947;48.834;9.132;2022-08-19T10:04:31;12.77;;;11.18;;
15693;SDS011;7947;48.834;9.132;2022-08-19T10:07:48;12.75;;;11.10;;
15693;SDS011;7947;48.834;9.132;2022-08-19T10:10:53;11.93;;;10.65;;
15693;SDS011;7947;48.834;9.132;2022-08-19T10:13:59;13.50;;;10.38;;
15693;SDS011;7947;48.834;9.132;2022-08-19T10:17:02;11.07;;;9.68;;
15693;SDS011;7947;48.834;9.132;2022-08-19T10:20:20;9.60;;;8.63;;
15693;SDS011;7947;48.834;9.132;2022-08-19T10:23:23;12.98;;;9.52;;
15693;SDS011;7947;48.834;9.132;2022-08-19T10:26:28;12.90;;;10.02;;
15693;SDS011;7947;48.834;9.132;2022-08-19T10:29:32;12.82;;;10.52;;
15693;SDS011;7947;48.834;9.132;2022-08-19T10:32:35;10.07;;;9.18;;
15693;SDS011;7947;48.834;9.132;2022-08-19T10:35:46;10.43;;;9.32;;
15693;SDS011;7947;48.834;9.132;2022-08-19T10:38:59;9.80;;;8.90;;
15693;SDS011;7947;48.834;9.132;2022-08-19T10:42:06;10.43;;;8.75;;
15693;SDS011;7947;48.834;9.132;2022-08-19T10:45:11;10.00;;;8.68;;
15693;SDS011;7947;48.834;9.132;2022-08-19T10:48:15;10.55;;;9.00;;
15693;SDS011;7947;48.834;9.132;2022-08-19T10:51:20;10.85;;;8.52;;
15693;SDS011;7947;48.834;9.132;2022-08-19T10:54:48;10.27;;;7.82;;
15693;SDS011;7947;48.834;9.132;2022-08-19T10:58:11;9.38;;;7.68;;
15693;SDS011;7947;48.834;9.132;2022-08-19T11:01:14;8.65;;;7.75;;
15693;SDS011;7947;48.834;9.132;2022-08-19T11:04:17;8.73;;;7.82;;
15693;SDS011;7947;48.834;9.132;2022-08-19T11:07:21;8.13;;;6.75;;
15693;SDS011;7947;48.834;9.132;2022-08-19T11:10:27;8.60;;;7.80;;
15693;SDS011;7947;48.834;9.132;2022-08-19T11:13:32;9.20;;;7.20;;
15693;SDS011;7947;48.834;9.132;2022-08-19T11:16:38;8.15;;;7.30;;
15693;SDS011;7947;48.834;9.132;2022-08-19T11:19:41;9.43;;;7.30;;
15693;SDS011;7947;48.834;9.132;2022-08-19T11:22:44;8.90;;;7.15;;
15693;SDS011;7947;48.834;9.132;2022-08-19T11:25:49;9.90;;;6.35;;
15693;SDS011;7947;48.834;9.132;2022-08-19T11:28:53;7.82;;;7.10;;
15693;SDS011;7947;48.834;9.132;2022-08-19T11:31:56;7.68;;;6.88;;
15693;SDS011;7947;48.834;9.132;2022-08-19T11:34:59;10.50;;;6.68;;
15693;SDS011;7947;48.834;9.132;2022-08-19T11:38:02;7.43;;;6.72;;
15693;SDS011;7947;48.834;9.132;2022-08-19T11:41:10;7.85;;;6.63;;
15693;SDS011;7947;48.834;9.132;2022-08-19T11:44:14;7.40;;;6.68;;
15693;SDS011;7947;48.834;9.132;2022-08-19T11:47:17;9.43;;;7.03;;
15693;SDS011;7947;48.834;9.132;2022-08-19T11:50:20;7.68;;;6.88;;
15693;SDS011;7947;48.834;9.132;2022-08-19T11:53:24;7.35;;;6.65;;
15693;SDS011;7947;48.834;9.132;2022-08-19T11:56:27;8.18;;;7.15;;
15693;SDS011;7947;48.834;9.132;2022-08-19T11:59:32;7.78;;;7.00;;
15693;SDS011;7947;48.834;9.132;2022-08-19T12:02:35;7.38;;;6.60;;
15693;SDS011;7947;48.834;9.132;2022-08-19T12:05:38;8.75;;;7.07;;
15693;SDS011;7947;48.834;9.132;2022-08-19T12:08:42;8.50;;;7.43;;
15693;SDS011;7947;48.834;9.132;2022-08-19T12:11:46;7.20;;;6.50;;
15693;SDS011;7947;48.834;9.132;2022-08-19T12:14:50;8.70;;;6.05;;
15693;SDS011;7947;48.834;9.132;2022-08-19T12:17:57;11.45;;;7.57;;
15693;SDS011;7947;48.834;9.132;2022-08-19T12:21:00;7.82;;;6.93;;
15693;SDS011;7947;48.834;9.132;2022-08-19T12:24:06;7.20;;;6.50;;
15693;SDS011;7947;48.834;9.132;2022-08-19T12:27:09;6.75;;;6.15;;
15693;SDS011;7947;48.834;9.132;2022-08-19T12:30:14;8.43;;;6.25;;
15693;SDS011;7947;48.834;9.132;2022-08-19T12:33:17;6.68;;;6.05;;
15693;SDS011;7947;48.834;9.132;2022-08-19T12:36:25;6.80;;;6.10;;
15693;SDS011;7947;48.834;9.132;2022-08-19T12:39:27;6.97;;;5.97;;
15693;SDS011;7947;48.834;9.132;2022-08-19T12:42:31;6.93;;;6.25;;
15693;SDS011;7947;48.834;9.132;2022-08-19T12:45:36;8.43;;;5.93;;
15693;SDS011;7947;48.834;9.132;2022-08-19T12:48:40;6.38;;;5.40;;
15693;SDS011;7947;48.834;9.132;2022-08-19T12:51:46;5.97;;;5.47;;
15693;SDS011;7947;48.834;9.132;2022-08-19T12:54:49;8.10;;;5.65;;
15693;SDS011;7947;48.834;9.132;2022-08-19T12:57:55;7.47;;;5.43;;
15693;SDS011;7947;48.834;9.132;2022-08-19T13:00:59;5.80;;;5.20;;
15693;SDS011;7947;48.834;9.132;2022-08-19T13:04:02;5.65;;;5.15;;
15693;SDS011;7947;48.834;9.132;2022-08-19T13:07:05;7.85;;;5.30;;
15693;SDS011;7947;48.834;9.132;2022-08-19T13:10:08;7.47;;;5.50;;
15693;SDS011;7947;48.834;9.132;2022-08-19T13:13:13;6.28;;;5.53;;
15693;SDS011;7947;48.834;9.132;2022-08-19T13:16:18;5.95;;;5.35;;
15693;SDS011;7947;48.834;9.132;2022-08-19T13:19:23;5.43;;;4.93;;
15693;SDS011;7947;48.834;9.132;2022-08-19T13:22:25;7.55;;;5.30;;
15693;SDS011;7947;48.834;9.132;2022-08-19T13:25:28;6.25;;;5.65;;
15693;SDS011;7947;48.834;9.132;2022-08-19T13:28:31;5.45;;;4.85;;
15693;SDS011;7947;48.834;9.132;2022-08-19T13:31:50;6.15;;;5.18;;
15693;SDS011;7947;48.834;9.132;2022-08-19T13:35:16;7.35;;;4.95;;
15693;SDS011;7947;48.834;9.132;2022-08-19T13:38:20;5.32;;;4.82;;
15693;SDS011;7947;48.834;9.132;2022-08-19T13:41:23;9.90;;;7.97;;
15693;SDS011;7947;48.834;9.132;2022-08-19T13:44:26;14.90;;;12.15;;
15693;SDS011;7947;48.834;9.132;2022-08-19T13:47:35;17.55;;;15.65;;
15693;SDS011;7947;48.834;9.132;2022-08-19T13:50:46;16.52;;;14.82;;
15693;SDS011;7947;48.834;9.132;2022-08-19T13:53:49;20.25;;;17.63;;
15693;SDS011;7947;48.834;9.132;2022-08-19T13:56:53;20.42;;;17.95;;
15693;SDS011;7947;48.834;9.132;2022-08-19T13:59:57;19.77;;;16.92;;
15693;SDS011;7947;48.834;9.132;2022-08-19T14:03:04;22.50;;;19.15;;
15693;SDS011;7947;48.834;9.132;2022-08-19T14:06:10;21.02;;;18.83;;
15693;SDS011;7947;48.834;9.132;2022-08-19T14:09:13;24.98;;;18.25;;
15693;SDS011;7947;48.834;9.132;2022-08-19T14:12:18;21.88;;;18.90;;
15693;SDS011;7947;48.834;9.132;2022-08-19T14:15:30;19.90;;;17.75;;
15693;SDS011;7947;48.834;9.132;2022-08-19T14:18:36;22.23;;;19.02;;
15693;SDS011;7947;48.834;9.132;2022-08-19T14:21:41;19.40;;;17.38;;
15693;SDS011;7947;48.834;9.132;2022-08-19T14:24:45;20.50;;;15.77;;
15693;SDS011;7947;48.834;9.132;2022-08-19T14:27:50;17.50;;;15.48;;
15693;SDS011;7947;48.834;9.132;2022-08-19T14:30:54;19.70;;;17.60;;
15693;SDS011;7947;48.834;9.132;2022-08-19T14:33:59;16.23;;;14.38;;
15693;SDS011;7947;48.834;9.132;2022-08-19T14:37:03;16.45;;;14.82;;
15693;SDS011;7947;48.834;9.132;2022-08-19T14:40:08;15.43;;;13.70;;
15693;SDS011;7947;48.834;9.132;2022-08-19T14:43:13;15.55;;;13.95;;
15693;SDS011;7947;48.834;9.132;2022-08-19T14:46:19;14.60;;;13.18;;
15693;SDS011;7947;48.834;9.132;2022-08-19T14:49:27;15.15;;;12.90;;
15693;SDS011;7947;48.834;9.132;2022-08-19T14:52:36;12.80;;;11.07;;
15693;SDS011;7947;48.834;9.132;2022-08-19T14:55:42;14.27;;;10.82;;
15693;SDS011;7947;48.834;9.132;2022-08-19T14:58:46;13.98;;;11.80;;
15693;SDS011;7947;48.834;9.132;2022-08-19T15:01:53;14.52;;;13.02;;
15693;SDS011;7947;48.834;9.132;2022-08-19T15:04:58;13.85;;;12.45;;
15693;SDS011;7947;48.834;9.132;2022-08-19T15:08:03;12.65;;;11.35;;
15693;SDS011;7947;48.834;9.132;2022-08-19T15:11:07;13.18;;;11.90;;
15693;SDS011;7947;48.834;9.132;2022-08-19T15:14:12;11.93;;;10.73;;
15693;SDS011;7947;48.834;9.132;2022-08-19T15:17:17;11.18;;;10.07;;
15693;SDS011;7947;48.834;9.132;2022-08-19T15:20:22;10.57;;;9.18;;
15693;SDS011;7947;48.834;9.132;2022-08-19T15:23:27;12.40;;;11.00;;
15693;SDS011;7947;48.834;9.132;2022-08-19T15:26:31;12.75;;;11.45;;
15693;SDS011;7947;48.834;9.132;2022-08-19T15:29:34;12.88;;;11.50;;
15693;SDS011;7947;48.834;9.132;2022-08-19T15:32:38;15.45;;;13.70;;
15693;SDS011;7947;48.834;9.132;2022-08-19T15:35:49;13.18;;;11.90;;
15693;SDS011;7947;48.834;9.132;2022-08-19T15:38:53;11.55;;;10.40;;
15693;SDS011;7947;48.834;9.132;2022-08-19T15:41:58;13.65;;;11.68;;
15693;SDS011;7947;48.834;9.132;2022-08-19T15:45:02;14.63;;;11.55;;
15693;SDS011;7947;48.834;9.132;2022-08-19T15:48:06;13.38;;;12.00;;
15693;SDS011;7947;48.834;9.132;2022-08-19T15:51:11;15.32;;;11.30;;
15693;SDS011;7947;48.834;9.132;2022-08-19T15:54:16;12.63;;;11.38;;
15693;SDS011;7947;48.834;9.132;2022-08-19T15:57:22;14.32;;;11.40;;
15693;SDS011;7947;48.834;9.132;2022-08-19T16:00:44;15.95;;;14.27;;
15693;SDS011;7947;48.834;9.132;2022-08-19T16:04:13;16.23;;;14.52;;
15693;SDS011;7947;48.834;9.132;2022-08-19T16:07:36;15.82;;;14.23;;
15693;SDS011;7947;48.834;9.132;2022-08-19T16:10:40;16.90;;;14.48;;
15693;SDS011;7947;48.834;9.132;2022-08-19T16:13:44;16.77;;;14.80;;
15693;SDS011;7947;48.834;9.132;2022-08-19T16:16:48;16.67;;;14.98;;
15693;SDS011;7947;48.834;9.132;2022-08-19T16:19:51;16.30;;;14.70;;
15693;SDS011;7947;48.834;9.132;2022-08-19T16:22:57;15.73;;;14.20;;
15693;SDS011;7947;48.834;9.132;2022-08-19T16:26:04;18.52;;;16.50;;
15693;SDS011;7947;48.834;9.132;2022-08-19T16:29:10;18.10;;;15.95;;
15693;SDS011;7947;48.834;9.132;2022-08-19T16:32:14;18.25;;;16.35;;
15693;SDS011;7947;48.834;9.132;2022-08-19T16:35:18;18.33;;;16.42;;
15693;SDS011;7947;48.834;9.132;2022-08-19T16:38:23;20.05;;;17.67;;
15693;SDS011;7947;48.834;9.132;2022-08-19T16:41:29;18.02;;;16.27;;
15693;SDS011;7947;48.834;9.132;2022-08-19T16:44:33;17.63;;;15.80;;
15693;SDS011;7947;48.834;9.132;2022-08-19T16:47:37;19.00;;;16.27;;
15693;SDS011;7947;48.834;9.132;2022-08-19T16:50:41;18.10;;;16.17;;
15693;SDS011;7947;48.834;9.132;2022-08-19T16:53:51;19.52;;;16.38;;
15693;SDS011;7947;48.834;9.132;2022-08-19T16:56:56;16.98;;;15.32;;
15693;SDS011;7947;48.834;9.132;2022-08-19T16:59:59;17.70;;;15.82;;
15693;SDS011;7947;48.834;9.132;2022-08-19T17:03:09;17.48;;;15.75;;
15693;SDS011;7947;48.834;9.132;2022-08-19T17:06:16;18.35;;;16.38;;
15693;SDS011;7947;48.834;9.132;2022-08-19T17:09:24;17.05;;;15.45;;
15693;SDS011;7947;48.834;9.132;2022-08-19T17:12:32;18.70;;;16.77;;
15693;SDS011;7947;48.834;9.132;2022-08-19T17:15:38;16.70;;;15.13;;
15693;SDS011;7947;48.834;9.132;2022-08-19T17:18:42;17.60;;;15.80;;
15693;SDS011;7947;48.834;9.132;2022-08-19T17:21:46;17.67;;;15.98;;
15693;SDS011;7947;48.834;9.132;2022-08-19T17:24:51;17.67;;;15.93;;
15693;SDS011;7947;48.834;9.132;2022-08-19T17:28:04;18.08;;;16.35;;
15693;SDS011;7947;48.834;9.132;2022-08-19T17:31:09;19.20;;;16.88;;
15693;SDS011;7947;48.834;9.132;2022-08-19T17:34:13;20.30;;;17.15;;
15693;SDS011;7947;48.834;9.132;2022-08-19T17:37:18;17.80;;;16.00;;
15693;SDS011;7947;48.834;9.132;2022-08-19T17:40:23;17.92;;;16.23;;
15693;SDS011;7947;48.834;9.132;2022-08-19T17:43:30;20.33;;;17.98;;
15693;SDS011;7947;48.834;9.132;2022-08-19T17:46:43;21.67;;;17.27;;
15693;SDS011;7947;48.834;9.132;2022-08-19T17:49:48;19.33;;;17.42;;
15693;SDS011;7947;48.834;9.132;2022-08-19T17:52:52;18.58;;;16.77;;
15693;SDS011;7947;48.834;9.132;2022-08-19T17:55:58;17.95;;;16.13;;
15693;SDS011;7947;48.834;9.132;2022-08-19T17:59:02;18.52;;;16.52;;
15693;SDS011;7947;48.834;9.132;2022-08-19T18:02:14;17.75;;;16.05;;
15693;SDS011;7947;48.834;9.132;2022-08-19T18:05:23;18.83;;;16.63;;
15693;SDS011;7947;48.834;9.132;2022-08-19T18:08:30;17.63;;;15.93;;
15693;SDS011;7947;48.834;9.132;2022-08-19T18:11:36;18.10;;;16.23;;
15693;SDS011;7947;48.834;9.132;2022-08-19T18:14:39;16.65;;;14.23;;
15693;SDS011;7947;48.834;9.132;2022-08-19T18:17:43;18.05;;;16.27;;
15693;SDS011;7947;48.834;9.132;2022-08-19T18:20:47;16.90;;;15.18;;
15693;SDS011;7947;48.834;9.132;2022-08-19T18:23:51;16.70;;;14.93;;
15693;SDS011;7947;48.834;9.132;2022-08-19T18:27:04;15.55;;;13.68;;
15693;SDS011;7947;48.834;9.132;2022-08-19T18:30:08;15.32;;;13.90;;
15693;SDS011;7947;48.834;9.132;2022-08-19T18:33:12;15.93;;;14.02;;
15693;SDS011;7947;48.834;9.132;2022-08-19T18:36:16;16.08;;;14.48;;
15693;SDS011;7947;48.834;9.132;2022-08-19T18:39:40;14.20;;;12.80;;
15693;SDS011;7947;48.834;9.132;2022-08-19T18:43:02;14.35;;;12.85;;
15693;SDS011;7947;48.834;9.132;2022-08-19T18:46:24;15.00;;;13.40;;
15693;SDS011;7947;48.834;9.132;2022-08-19T18:49:45;14.05;;;12.60;;
15693;SDS011;7947;48.834;9.132;2022-08-19T18:52:51;15.85;;;12.35;;
15693;SDS011;7947;48.834;9.132;2022-08-19T18:55:55;14.25;;;12.70;;
15693;SDS011;7947;48.834;9.132;2022-08-19T18:59:01;15.38;;;12.55;;
15693;SDS011;7947;48.834;9.132;2022-08-19T19:02:05;13.27;;;11.70;;
15693;SDS011;7947;48.834;9.132;2022-08-19T19:05:09;13.88;;;12.43;;
15693;SDS011;7947;48.834;9.132;2022-08-19T19:08:15;13.70;;;11.75;;
15693;SDS011;7947;48.834;9.132;2022-08-19T19:11:20;12.85;;;11.60;;
15693;SDS011;7947;48.834;9.132;2022-08-19T19:14:29;13.05;;;11.75;;